createdAt,value
2018-06-24T00:04:02.984Z,0.72
2018-06-24T00:09:57.979Z,0.78
2018-06-24T00:15:52.980Z,0.87
2018-06-24T00:21:48.008Z,0.9
2018-06-24T00:27:43.012Z,0.84
2018-06-24T00:33:37.974Z,0.76
2018-06-24T00:39:32.994Z,0.81
2018-06-24T00:45:27.996Z,0.7
2018-06-24T00:51:23.033Z,0.82
2018-06-24T00:57:17.993Z,1.04
2018-06-24T01:03:13.022Z,0.96
2018-06-24T01:09:08.004Z,1.03
2018-06-24T01:15:03.237Z,0.9
2018-06-24T01:44:37.995Z,0.69
2018-06-24T01:44:38.171Z,0.86
2018-06-24T01:44:38.189Z,0.86
2018-06-24T01:44:38.200Z,0.86
2018-06-24T01:44:38.296Z,0.86
2018-06-24T01:50:33.025Z,0.83
2018-06-24T01:56:28.044Z,0.77
2018-06-24T02:02:23.058Z,0.6
2018-06-24T02:08:18.003Z,1
2018-06-24T02:14:13.029Z,0.93
2018-06-24T02:20:07.982Z,0.85
2018-06-24T02:26:03.055Z,0.8
2018-06-24T02:31:58.081Z,0.83
2018-06-24T02:37:53.030Z,0.77
2018-06-24T02:43:48.101Z,0.97
2018-06-24T02:49:43.037Z,0.95
2018-06-24T02:55:38.044Z,0.74
2018-06-24T03:01:33.001Z,0.63
2018-06-24T03:07:28.012Z,0.79
2018-06-24T03:13:23.037Z,0.84
2018-06-24T03:19:18.049Z,0.83
2018-06-24T03:25:13.039Z,0.93
2018-06-24T03:31:08.001Z,0.87
2018-06-24T03:37:03.053Z,0.73
2018-06-24T03:42:58.081Z,0.75
2018-06-24T03:48:53.052Z,0.8
2018-06-24T03:54:48.008Z,0.75
2018-06-24T04:00:43.004Z,0.89
2018-06-24T04:06:38.050Z,0.9
2018-06-24T04:12:33.058Z,0.77
2018-06-24T04:18:28.115Z,0.63
2018-06-24T04:42:08.121Z,0.91
2018-06-24T04:42:08.347Z,1
2018-06-24T04:42:08.355Z,1
2018-06-24T04:42:08.371Z,1
2018-06-24T04:48:03.082Z,1.13
2018-06-24T04:53:58.157Z,0.98
2018-06-24T04:59:53.030Z,1.27
2018-06-24T05:05:48.081Z,1
2018-06-24T05:11:43.051Z,0.93
2018-06-24T05:17:38.076Z,0.93
2018-06-24T05:23:33.054Z,0.99
2018-06-24T05:29:28.068Z,1.13
2018-06-24T05:35:23.118Z,0.82
2018-06-24T05:41:18.109Z,1.07
2018-06-24T05:47:13.100Z,1.22
2018-06-24T05:53:08.108Z,1.25
2018-06-24T05:59:03.092Z,1.05
2018-06-24T06:04:58.114Z,1.3
2018-06-24T06:10:53.107Z,1.13
2018-06-24T06:16:48.119Z,1.3
2018-06-24T06:22:43.063Z,1.37
2018-06-24T06:28:38.189Z,1.34
2018-06-24T06:34:33.107Z,1.36
2018-06-24T06:40:28.077Z,1.44
2018-06-24T06:46:23.079Z,1.44
2018-06-24T06:52:18.086Z,1.5
2018-06-24T06:58:13.138Z,1.35
2018-06-24T07:04:08.097Z,1.4
2018-06-24T07:10:03.148Z,1.79
2018-06-24T07:15:58.095Z,2.44
2018-06-24T07:45:33.129Z,1.44
2018-06-24T07:45:33.142Z,1.81
2018-06-24T07:45:33.176Z,1.81
2018-06-24T07:45:33.213Z,1.81
2018-06-24T07:45:33.221Z,1.81
2018-06-24T07:51:28.090Z,1.63
2018-06-24T07:57:23.107Z,1.72
2018-06-24T08:03:18.207Z,1.65
2018-06-24T08:09:13.081Z,1.37
2018-06-24T08:15:08.095Z,1.06
2018-06-24T08:21:03.147Z,1.01
2018-06-24T08:26:58.138Z,1.07
2018-06-24T08:32:53.142Z,0.93
2018-06-24T08:38:48.126Z,1.18
2018-06-24T08:44:43.090Z,1.21
2018-06-24T08:50:38.139Z,1.33
2018-06-24T08:56:33.162Z,1.28
2018-06-24T09:02:28.158Z,1.24
2018-06-24T09:08:23.103Z,1.3
2018-06-24T09:14:18.173Z,1.41
2018-06-24T09:20:13.207Z,1.53
2018-06-24T09:26:08.108Z,1.4
2018-06-24T09:32:03.102Z,1.92
2018-06-24T09:37:58.148Z,1.41
2018-06-24T09:43:53.140Z,1.42
2018-06-24T09:49:48.121Z,1.85
2018-06-24T09:55:43.153Z,1.02
2018-06-24T10:01:38.227Z,1.54
2018-06-24T10:07:33.130Z,1.02
2018-06-24T10:13:28.151Z,1.06
2018-06-24T10:19:23.156Z,0.97
2018-06-24T10:43:03.157Z,1
2018-06-24T10:43:03.305Z,0.93
2018-06-24T10:43:03.324Z,0.93
2018-06-24T10:43:03.344Z,0.93
2018-06-24T10:48:58.182Z,1.29
2018-06-24T10:54:53.163Z,1.02
2018-06-24T11:00:48.159Z,0.96
2018-06-24T11:06:43.145Z,0.81
2018-06-24T11:12:38.232Z,1.05
2018-06-24T11:18:33.183Z,0.87
2018-06-24T11:24:28.183Z,0.8
2018-06-24T11:30:23.191Z,0.7
2018-06-24T11:36:18.196Z,1.08
2018-06-24T11:42:13.199Z,0.67
2018-06-24T11:48:08.174Z,0.86
2018-06-24T11:54:03.171Z,1.71
2018-06-24T11:59:58.186Z,0.8
2018-06-24T12:05:53.223Z,0.75
2018-06-24T12:11:48.184Z,0.8
2018-06-24T12:17:43.206Z,0.87
2018-06-24T12:23:38.204Z,0.81
2018-06-24T12:29:33.304Z,0.81
2018-06-24T12:35:28.248Z,0.86
2018-06-24T12:41:23.194Z,0.97
2018-06-24T12:47:18.245Z,0.91
2018-06-24T12:53:13.236Z,0.81
2018-06-24T12:59:08.488Z,0.7
2018-06-24T13:05:03.266Z,0.81
2018-06-24T13:10:58.272Z,0.89
2018-06-24T13:16:53.274Z,0.87
2018-06-24T13:46:28.273Z,0.84
2018-06-24T13:46:28.393Z,0.87
2018-06-24T13:46:28.419Z,0.87
2018-06-24T13:46:28.438Z,0.87
2018-06-24T13:46:28.449Z,0.87
2018-06-24T13:52:23.335Z,0.77
2018-06-24T13:58:18.257Z,1.01
2018-06-24T14:04:13.330Z,0.98
2018-06-24T14:10:08.296Z,0.87
2018-06-24T14:16:03.265Z,1.18
2018-06-24T14:21:58.265Z,0.84
2018-06-24T14:27:53.247Z,0.87
2018-06-24T14:33:48.274Z,0.99
2018-06-24T14:39:43.260Z,1.06
2018-06-24T14:45:38.270Z,0.91
2018-06-24T14:51:33.293Z,0.97
2018-06-24T14:57:28.268Z,0.99
2018-06-24T15:03:23.290Z,0.94
2018-06-24T15:09:18.338Z,0.99
2018-06-24T15:15:13.302Z,0.8
2018-06-24T15:21:08.300Z,1.01
2018-06-24T15:27:03.264Z,1.07
2018-06-24T15:32:58.299Z,0.82
2018-06-24T15:38:53.260Z,0.84
2018-06-24T15:44:48.289Z,0.97
2018-06-24T15:50:43.299Z,0.96
2018-06-24T15:56:38.318Z,1.1
2018-06-24T16:02:33.259Z,0.91
2018-06-24T16:08:28.319Z,0.83
2018-06-24T16:14:23.270Z,0.83
2018-06-24T16:20:18.396Z,0.96
2018-06-24T16:43:58.343Z,0.87
2018-06-24T16:43:58.563Z,1.07
2018-06-24T16:43:58.569Z,1.07
2018-06-24T16:43:58.609Z,1.07
2018-06-24T16:49:53.360Z,0.9
2018-06-24T16:55:48.307Z,1.07
2018-06-24T17:01:43.312Z,0.94
2018-06-24T17:07:38.308Z,1.2
2018-06-24T17:13:33.350Z,0.94
2018-06-24T17:19:28.317Z,0.98
2018-06-24T17:25:23.364Z,1.37
2018-06-24T17:31:18.335Z,1.06
2018-06-24T17:37:13.396Z,1.03
2018-06-24T17:43:08.341Z,1.2
2018-06-24T17:49:03.347Z,1.31
2018-06-24T17:54:58.423Z,0.97
2018-06-24T18:00:53.371Z,1.18
2018-06-24T18:06:48.360Z,1.03
2018-06-24T18:12:43.396Z,1.1
2018-06-24T18:18:38.374Z,1.55
2018-06-24T18:24:33.351Z,1.1
2018-06-24T18:30:28.372Z,1.25
2018-06-24T18:36:23.366Z,1.17
2018-06-24T18:42:18.375Z,1.59
2018-06-24T18:48:13.364Z,1.26
2018-06-24T18:54:08.400Z,2.83
2018-06-24T19:00:03.558Z,1.34
2018-06-24T19:05:58.385Z,1.16
2018-06-24T19:11:53.383Z,1.18
2018-06-24T19:17:48.388Z,1.03
2018-06-24T19:47:23.357Z,1.07
2018-06-24T19:47:23.598Z,1.39
2018-06-24T19:47:23.602Z,1.39
2018-06-24T19:47:23.663Z,1.39
2018-06-24T19:47:23.681Z,1.39
2018-06-24T19:53:18.375Z,1.13
2018-06-24T19:59:13.348Z,1.01
2018-06-24T20:05:08.400Z,2.66
2018-06-24T20:11:03.421Z,2.93
2018-06-24T20:16:58.393Z,3.15
2018-06-24T20:22:53.402Z,2.33
2018-06-24T20:28:48.497Z,2.07
2018-06-24T20:34:43.398Z,1.83
2018-06-24T20:40:38.391Z,1.73
2018-06-24T20:46:33.494Z,1.51
2018-06-24T20:52:28.406Z,1.46
2018-06-24T20:58:23.418Z,1.43
2018-06-24T21:04:18.446Z,1.37
2018-06-24T21:10:13.389Z,1.19
2018-06-24T21:16:08.380Z,1.63
2018-06-24T21:22:03.422Z,1.54
2018-06-24T21:27:58.430Z,1.27
2018-06-24T21:33:53.426Z,1.58
2018-06-24T21:39:48.433Z,1.49
2018-06-24T21:45:43.443Z,1.28
2018-06-24T21:51:38.435Z,1.56
2018-06-24T21:57:33.391Z,1.14
2018-06-24T22:03:28.487Z,1.46
2018-06-24T22:09:23.486Z,1.11
2018-06-24T22:15:18.469Z,1.26
2018-06-24T22:21:13.438Z,1.18
2018-06-24T22:44:53.431Z,1.23
2018-06-24T22:44:53.536Z,2.78
2018-06-24T22:44:53.558Z,2.78
2018-06-24T22:44:53.586Z,2.78
2018-06-24T22:50:48.441Z,2.02
2018-06-24T22:56:43.425Z,2.28
2018-06-24T23:02:38.416Z,1.57
2018-06-24T23:08:33.471Z,1.37
2018-06-24T23:14:28.482Z,1.58
2018-06-24T23:20:23.485Z,1.6
2018-06-24T23:26:18.540Z,1.4
2018-06-24T23:32:13.471Z,1.5
2018-06-24T23:38:08.460Z,1.35
2018-06-24T23:44:03.444Z,1.27
2018-06-24T23:49:58.473Z,1.18
2018-06-24T23:55:53.460Z,1.25
